x

Buzzards Bay, Ma (buzm3) Weather Station

5:00pm - Mon 20th Nov 2017 All times are EST. -5 hours from GMT.

  • Wind
    26mph, 31mph gusts
  • Air Temp 44°f
  • Sea Pressure 1016mb
  • Buzzards Bay, Ma
  • Buzzards Bay, Ma

More Historic Weather Station data

Upgrade to MSW Pro to gain access to the past 30 days of data for over 8000 Wavebouys and Weather Stations around the globe.

Join

Comparision Forecast

View Surf forecast
   
Mon 11/20 5:00pm 26 31 mph 1016mb 44f
4:00pm 17 22 mph 1015.8mb 42f
3:00pm 18 21 mph 1015.2mb 42f
2:00pm 21 26 mph 1014.8mb 40f
1:00pm 22 24 mph 1014.6mb 39f
12:00pm 21 24 mph 1014.4mb 39f
11:00am 30 40 mph 1014.4mb 39f
10:00am 28 32 mph 1014.5mb 38f
9:00am 31 36 mph 1014.1mb 37f
8:00am 32 37 mph 1013.3mb 37f
7:00am 32 37 mph 1012.1mb 37f
6:00am 32 36 mph 1010.8mb 38f
5:00am 32 37 mph 1009.8mb 38f
4:00am 28 31 mph 1008.9mb 39f
3:00am 26 30 mph 1007.9mb 40f
2:00am 23 26 mph 1007.4mb 42f
1:00am 28 30 mph 1006.3mb 42f
12:00am 33 37 mph 1005.7mb 41f
Sun 11/19 11:00pm 34 39 mph 1005mb 42f
10:00pm 29 33 mph 1004.5mb 42f
9:00pm 29 36 mph 1003.9mb 43f
8:00pm 34 40 mph 1002.7mb 43f
7:00pm 33 38 mph 1001.9mb 44f
6:00pm 32 34 mph 1001mb 44f
5:00pm 34 39 mph 998.7mb 46f
4:00pm 40 45 mph 996.8mb 48f
3:00pm 38 43 mph 994.7mb 49f
2:00pm 39 45 mph 992.9mb 51f
1:00pm 43 46 mph 991.3mb 51f
12:00pm 39 46 mph 989.1mb 55f
11:00am 34 38 mph 988.9mb 58f
10:00am 39 43 mph 988.9mb 58f
9:00am 34 38 mph 990mb 58f
8:00am 38 43 mph 990.5mb 59f
6:00am 38 43 mph 991.8mb 59f
5:00am 38 44 mph 992.7mb 61f
4:00am 34 38 mph 993.7mb 61f
2:00am 32 37 mph 996.3mb 60f
1:00am 34 39 mph 997.6mb 60f
12:00am 28 30 mph 999.2mb 59f
Sat 11/18 11:00pm 23 24 mph 1000.7mb 57f
9:00pm 24 29 mph 1002.3mb 58f
8:00pm 23 25 mph 1003.6mb 58f
7:00pm 26 29 mph 1004.3mb 57f
6:00pm 29 31 mph 1005.1mb 56f
5:00pm 28 29 mph 1006mb 55f
4:00pm 26 30 mph 1006.5mb 55f
3:00pm 25 26 mph 1008.1mb 53f
2:00pm 23 26 mph 1009.4mb 52f
1:00pm 10 11 mph 1010.7mb 50f
12:00pm 8 9 mph 1011.9mb 47f
11:00am 7 8 mph 1013.5mb 45f
10:00am 7 9 mph 1014.6mb 44f
9:00am 7 8 mph 1015.2mb 44f
8:00am 6 7 mph 1015.8mb 42f
7:00am 6 8 mph 1016mb 41f
6:00am 9 10 mph 1015.9mb 40f
5:00am 10 13 mph 1016.1mb 41f
4:00am 9 10 mph 1015.5mb 40f
3:00am 8 10 mph 1016.6mb 38f
2:00am 15 17 mph 1016.8mb 38f
1:00am 16 21 mph 1017.2mb 39f
12:00am 16 20 mph 1016.6mb 38f
Fri 11/17 11:00pm 16 21 mph 1016.3mb 39f
10:00pm 14 15 mph 1016mb 39f
9:00pm 22 25 mph 1016.7mb 39f
8:00pm 26 29 mph 1016.1mb 40f
7:00pm 24 26 mph 1016.2mb 41f
6:00pm 22 26 mph 1016mb 43f
5:00pm 26 29 mph 1015.2mb 43f
4:00pm 24 28 mph 1014.1mb 46f
3:00pm 26 30 mph 1013.2mb 46f
2:00pm 25 28 mph 1012.6mb 45f
1:00pm 23 25 mph 1012.4mb 43f
12:00pm 25 28 mph 1012.6mb 42f
11:00am 32 38 mph 1012.6mb 42f
10:00am 32 39 mph 1012.7mb 42f
9:00am 30 36 mph 1012.2mb 41f
8:00am 34 39 mph 1011.9mb 41f
7:00am 30 34 mph 1011.1mb 41f
6:00am 33 37 mph 1009.6mb 42f
5:00am 34 40 mph 1008.6mb 43f
4:00am 30 32 mph 1008.3mb 43f
3:00am 29 33 mph 1008mb 44f
2:00am 30 33 mph 1007.7mb 45f
1:00am 28 32 mph 1007.3mb 45f
12:00am 30 33 mph 1007.2mb 46f